Time;durP1;ratioP1;P1;durP2;ratioP2;P2;SDS_P1;SDS_P2;PMS_P1;PMS_P2;Temp;Humidity;BMP_temperature;BMP_pressure;BME280_temperature;BME280_humidity;BME280_pressure;Samples;Min_cycle;Max_cycle;Signal;HPM_P1;HPM_P2
2022/06/08 00:02:32;;;;;;;0.40;0.40;;;18.90;99.90;;;;;;5053783;28;20229;-70
2022/06/08 00:05:20;;;;;;;0.40;0.40;;;18.30;99.90;;;;;;5053574;28;20244;-73
2022/06/08 00:08:08;;;;;;;0.40;0.40;;;18.20;99.90;;;;;;5053926;28;20223;-70
2022/06/08 00:10:56;;;;;;;0.43;0.43;;;18.10;99.90;;;;;;5053390;28;20233;-73
2022/06/08 00:13:45;;;;;;;0.40;0.40;;;18.10;99.90;;;;;;5053217;28;20662;-70
2022/06/08 00:16:35;;;;;;;0.40;0.40;;;18.00;99.90;;;;;;5054383;28;20233;-72
2022/06/08 00:19:23;;;;;;;0.50;0.50;;;18.00;99.90;;;;;;5053994;28;20719;-69
2022/06/08 00:22:11;;;;;;;0.50;0.50;;;17.90;99.90;;;;;;5053560;28;20240;-71
2022/06/08 00:24:59;;;;;;;0.40;0.40;;;17.80;99.90;;;;;;5054860;28;20221;-68
2022/06/08 00:27:48;;;;;;;0.50;0.50;;;17.60;99.90;;;;;;5054728;28;20255;-69
2022/06/08 00:30:36;;;;;;;0.40;0.40;;;17.50;99.90;;;;;;5053957;28;20201;-70
2022/06/08 00:33:26;;;;;;;0.40;0.40;;;17.50;99.90;;;;;;5054525;28;20205;-68
2022/06/08 00:36:14;;;;;;;0.40;0.40;;;17.50;99.90;;;;;;5054176;28;20201;-69
2022/06/08 00:39:02;;;;;;;0.50;0.50;;;17.50;99.90;;;;;;5053895;28;20197;-69
2022/06/08 00:41:54;;;;;;;0.50;0.50;;;17.50;99.90;;;;;;5053843;28;20228;-69
2022/06/08 00:44:46;;;;;;;0.40;0.40;;;17.50;99.90;;;;;;5052156;28;20213;-72
2022/06/08 00:47:39;;;;;;;0.70;0.70;;;17.50;99.90;;;;;;5051496;28;20213;-69
2022/06/08 00:50:32;;;;;;;0.50;0.50;;;17.40;99.90;;;;;;5053017;28;20251;-71
2022/06/08 00:53:25;;;;;;;0.50;0.50;;;17.50;99.90;;;;;;5052147;28;20251;-70
2022/06/08 00:56:16;;;;;;;0.50;0.50;;;17.50;99.90;;;;;;5039479;28;20670;-69
2022/06/08 00:59:06;;;;;;;0.50;0.50;;;17.50;99.90;;;;;;5047277;28;20205;-69
2022/06/08 01:01:54;;;;;;;0.40;0.40;;;17.40;99.90;;;;;;5052930;28;20568;-68
2022/06/08 01:04:42;;;;;;;0.40;0.40;;;17.30;99.90;;;;;;5054269;28;20229;-68
2022/06/08 01:07:32;;;;;;;0.45;0.45;;;17.20;99.90;;;;;;5053683;28;20209;-68
2022/06/08 01:10:24;;;;;;;0.50;0.50;;;17.10;99.90;;;;;;5054262;28;20240;-68
2022/06/08 01:13:12;;;;;;;0.40;0.40;;;16.90;99.90;;;;;;5054846;28;20197;-69
2022/06/08 01:16:02;;;;;;;0.50;0.50;;;16.80;99.90;;;;;;5059482;28;20661;-67
2022/06/08 01:18:51;;;;;;;0.40;0.40;;;16.70;99.90;;;;;;5054278;28;20244;-68
2022/06/08 01:21:52;;;;;;;0.50;0.50;;;16.50;99.90;;;;;;5053997;28;20315;-68
2022/06/08 01:24:41;;;;;;;0.40;0.40;;;16.40;99.90;;;;;;5054336;28;20225;-67
2022/06/08 01:27:38;;;;;;;0.40;0.40;;;16.20;99.90;;;;;;5055055;28;20197;-68
2022/06/08 01:30:31;;;;;;;0.40;0.40;;;16.20;99.90;;;;;;5054004;28;20263;-68
2022/06/08 01:33:49;;;;;;;0.50;0.50;;;16.10;99.90;;;;;;5054409;28;20202;-68
2022/06/08 01:37:02;;;;;;;0.40;0.40;;;16.10;99.90;;;;;;5054356;28;21203;-67
2022/06/08 01:40:08;;;;;;;0.40;0.40;;;16.00;99.90;;;;;;5054730;28;20216;-67
2022/06/08 01:43:09;;;;;;;0.45;0.45;;;15.90;99.90;;;;;;5054763;28;20226;-67
2022/06/08 01:46:15;;;;;;;0.40;0.40;;;15.90;99.90;;;;;;5054197;28;20201;-67
2022/06/08 01:49:19;;;;;;;0.40;0.40;;;15.80;99.90;;;;;;5054142;28;20208;-68
2022/06/08 01:52:19;;;;;;;0.40;0.40;;;15.80;99.90;;;;;;5055168;28;20236;-67
2022/06/08 01:55:15;;;;;;;0.50;0.50;;;15.70;99.90;;;;;;5054199;28;20217;-66
2022/06/08 01:58:11;;;;;;;0.40;0.40;;;15.70;99.90;;;;;;5054631;28;20209;-67
2022/06/08 02:01:06;;;;;;;0.40;0.40;;;15.60;99.90;;;;;;5053715;28;20263;-68
2022/06/08 02:04:03;;;;;;;0.40;0.40;;;15.50;99.90;;;;;;5054233;28;20229;-68
2022/06/08 02:07:02;;;;;;;0.40;0.40;;;15.50;99.90;;;;;;5054473;28;20416;-68
2022/06/08 02:09:55;;;;;;;0.50;0.50;;;15.50;99.90;;;;;;5053112;28;20209;-67
2022/06/08 02:12:49;;;;;;;0.40;0.40;;;15.50;99.90;;;;;;5054418;28;20206;-67
2022/06/08 02:15:40;;;;;;;0.40;0.40;;;15.40;99.90;;;;;;5053373;28;20633;-68
2022/06/08 02:18:35;;;;;;;0.50;0.50;;;15.30;99.90;;;;;;5053205;28;20582;-67
2022/06/08 02:21:29;;;;;;;0.40;0.40;;;15.30;99.90;;;;;;5054319;28;20198;-68
2022/06/08 02:24:22;;;;;;;0.50;0.50;;;15.20;99.90;;;;;;5053185;28;20225;-68
2022/06/08 02:27:15;;;;;;;0.50;0.50;;;15.20;99.90;;;;;;5054373;28;20673;-67
2022/06/08 02:30:09;;;;;;;0.47;0.47;;;15.10;99.90;;;;;;5053091;28;20202;-67
2022/06/08 02:36:13;;;;;;;0.43;0.43;;;15.10;99.90;;;;;;5052263;28;20197;-68
2022/06/08 02:39:06;;;;;;;0.50;0.50;;;15.10;99.90;;;;;;5053772;28;20607;-67
2022/06/08 02:42:02;;;;;;;0.40;0.40;;;15.10;99.90;;;;;;5053974;28;20427;-69
2022/06/08 02:44:54;;;;;;;0.40;0.40;;;15.10;99.90;;;;;;5053391;28;20221;-67
2022/06/08 02:47:46;;;;;;;0.50;0.50;;;15.10;99.90;;;;;;5053773;28;20201;-67
2022/06/08 02:50:34;;;;;;;0.40;0.40;;;15.20;99.90;;;;;;5053607;28;20280;-67
2022/06/08 02:53:47;;;;;;;0.40;0.40;;;15.30;99.90;;;;;;5053406;28;20198;-67
2022/06/08 02:56:46;;;;;;;0.40;0.40;;;15.30;99.90;;;;;;5054137;28;20579;-68
2022/06/08 02:59:45;;;;;;;0.40;0.40;;;15.50;99.90;;;;;;5053445;28;20207;-68
2022/06/08 03:02:38;;;;;;;0.40;0.40;;;15.60;99.90;;;;;;5054274;28;20205;-67
2022/06/08 03:05:32;;;;;;;0.40;0.40;;;15.70;99.90;;;;;;5053271;28;20242;-68
2022/06/08 03:08:25;;;;;;;0.40;0.40;;;15.80;99.90;;;;;;5053792;28;20197;-68
2022/06/08 03:11:13;;;;;;;0.40;0.40;;;16.00;99.90;;;;;;5052534;28;20555;-67
2022/06/08 03:14:06;;;;;;;0.40;0.40;;;16.00;99.90;;;;;;5052685;28;20225;-67
2022/06/08 03:16:57;;;;;;;0.40;0.40;;;16.10;99.90;;;;;;5052935;28;20197;-68
2022/06/08 03:19:46;;;;;;;0.40;0.40;;;16.20;99.90;;;;;;5053238;28;20285;-68
2022/06/08 03:22:38;;;;;;;0.43;0.43;;;16.30;99.90;;;;;;5052903;28;20584;-68
2022/06/08 03:25:26;;;;;;;0.40;0.40;;;16.40;99.90;;;;;;5051975;28;20233;-68
2022/06/08 03:28:15;;;;;;;0.40;0.40;;;16.50;99.90;;;;;;5052699;28;20224;-68
2022/06/08 03:31:03;;;;;;;0.40;0.40;;;16.60;99.90;;;;;;5052303;28;20197;-68
2022/06/08 03:33:51;;;;;;;0.40;0.40;;;16.70;99.90;;;;;;5053093;28;20586;-71
2022/06/08 03:36:40;;;;;;;0.40;0.40;;;16.80;99.90;;;;;;5051856;28;20616;-70
2022/06/08 03:39:30;;;;;;;0.40;0.40;;;16.90;99.90;;;;;;5052230;28;20206;-70
2022/06/08 03:42:18;;;;;;;0.40;0.40;;;17.00;99.90;;;;;;5055087;28;20220;-68
2022/06/08 03:45:08;;;;;;;0.40;0.40;;;17.10;99.90;;;;;;5055488;28;20229;-68
2022/06/08 03:47:57;;;;;;;0.50;0.50;;;17.00;99.90;;;;;;5055917;28;20205;-68
2022/06/08 03:50:49;;;;;;;0.40;0.40;;;16.90;99.90;;;;;;5055240;28;20201;-68
2022/06/08 03:53:44;;;;;;;0.40;0.40;;;16.80;99.90;;;;;;5056261;28;20778;-68
2022/06/08 03:56:35;;;;;;;1.52;1.52;;;16.70;99.90;;;;;;5055494;28;20574;-68
2022/06/08 03:59:24;;;;;;;0.50;0.50;;;16.70;99.90;;;;;;5055642;28;20197;-68
2022/06/08 04:02:12;;;;;;;0.40;0.40;;;16.60;99.90;;;;;;5055627;28;20673;-68
2022/06/08 04:05:01;;;;;;;0.50;0.50;;;16.50;99.90;;;;;;5055716;28;20236;-67
2022/06/08 04:07:49;;;;;;;0.50;0.50;;;16.50;99.90;;;;;;5055180;28;20204;-68
2022/06/08 04:10:37;;;;;;;0.50;0.50;;;16.50;99.90;;;;;;5055070;28;20208;-68
2022/06/08 04:13:26;;;;;;;0.40;0.40;;;16.60;99.90;;;;;;5055911;28;20209;-69
2022/06/08 04:16:16;;;;;;;0.50;0.50;;;16.80;99.90;;;;;;5054581;28;20208;-69
2022/06/08 04:19:05;;;;;;;0.40;0.40;;;16.90;99.90;;;;;;5054628;28;20205;-70
2022/06/08 04:21:53;;;;;;;0.40;0.40;;;17.10;99.90;;;;;;5053777;28;20254;-72
2022/06/08 04:24:41;;;;;;;0.40;0.40;;;17.30;99.90;;;;;;5053661;28;20690;-71
2022/06/08 04:27:29;;;;;;;0.43;0.43;;;17.50;99.90;;;;;;5052919;28;20205;-70
2022/06/08 04:30:19;;;;;;;0.40;0.40;;;17.70;99.90;;;;;;5053285;28;20209;-70
2022/06/08 04:33:07;;;;;;;0.40;0.40;;;17.80;99.90;;;;;;5053485;28;20209;-70
2022/06/08 04:35:55;;;;;;;0.40;0.40;;;17.90;99.90;;;;;;5053566;28;20686;-70
2022/06/08 04:38:44;;;;;;;0.50;0.50;;;18.00;99.90;;;;;;5053218;28;20208;-71
2022/06/08 04:41:32;;;;;;;0.40;0.40;;;18.00;99.90;;;;;;5053482;28;20686;-72
2022/06/08 04:44:21;;;;;;;0.98;0.98;;;18.20;99.90;;;;;;5053288;28;20222;-71
2022/06/08 04:47:10;;;;;;;0.40;0.40;;;18.30;99.90;;;;;;5053069;28;20609;-70
2022/06/08 04:49:58;;;;;;;0.43;0.43;;;18.30;99.90;;;;;;5053279;28;20609;-70
2022/06/08 04:52:48;;;;;;;0.40;0.40;;;18.30;99.90;;;;;;5052428;28;20692;-70
2022/06/08 04:55:36;;;;;;;0.40;0.40;;;18.40;99.90;;;;;;5053255;28;20213;-72
2022/06/08 04:58:26;;;;;;;2.63;1.67;;;18.30;99.90;;;;;;5052534;28;20197;-71
2022/06/08 05:01:14;;;;;;;0.40;0.40;;;18.20;99.90;;;;;;5052956;28;20204;-70
2022/06/08 05:04:04;;;;;;;0.40;0.40;;;18.20;99.90;;;;;;5052827;28;20664;-70
2022/06/08 05:06:52;;;;;;;0.50;0.50;;;18.20;99.90;;;;;;5051851;28;20208;-71
2022/06/08 05:09:40;;;;;;;0.50;0.50;;;18.30;99.90;;;;;;5052535;28;20670;-71
2022/06/08 05:12:28;;;;;;;0.40;0.40;;;18.50;99.90;;;;;;5052791;28;20578;-69
2022/06/08 05:15:18;;;;;;;0.40;0.40;;;18.70;99.90;;;;;;5052276;28;20252;-71
2022/06/08 05:18:08;;;;;;;0.40;0.40;;;18.80;99.90;;;;;;5052247;28;20209;-70
2022/06/08 05:20:57;;;;;;;0.40;0.40;;;18.90;99.90;;;;;;5052378;28;20209;-70
2022/06/08 05:23:46;;;;;;;0.40;0.40;;;19.00;99.90;;;;;;5052548;28;20224;-69
2022/06/08 05:26:35;;;;;;;0.40;0.40;;;19.10;99.90;;;;;;5052483;28;20306;-70
2022/06/08 05:29:23;;;;;;;0.40;0.40;;;19.20;99.90;;;;;;5049623;28;20685;-70
2022/06/08 05:32:11;;;;;;;0.60;0.60;;;19.20;99.90;;;;;;5052762;28;20197;-71
2022/06/08 05:34:59;;;;;;;0.40;0.40;;;19.30;99.90;;;;;;5053089;28;20220;-71
2022/06/08 05:37:48;;;;;;;0.40;0.40;;;19.30;99.90;;;;;;5054905;28;20201;-70
2022/06/08 05:40:37;;;;;;;0.40;0.40;;;19.30;99.90;;;;;;5049852;28;20240;-68
2022/06/08 05:43:26;;;;;;;0.40;0.40;;;19.30;99.90;;;;;;5052153;28;20209;-68
2022/06/08 05:46:16;;;;;;;0.43;0.43;;;19.30;99.90;;;;;;5052192;28;20310;-72
2022/06/08 05:49:05;;;;;;;0.40;0.40;;;19.20;99.90;;;;;;5051736;28;20201;-70
2022/06/08 05:51:53;;;;;;;0.40;0.40;;;18.90;99.90;;;;;;5050221;28;20236;-70
2022/06/08 05:54:42;;;;;;;0.40;0.40;;;18.60;99.90;;;;;;5044386;28;20224;-70
2022/06/08 05:57:30;;;;;;;0.40;0.40;;;18.50;99.90;;;;;;5051676;28;20216;-73
2022/06/08 06:00:22;;;;;;;0.40;0.40;;;18.40;99.90;;;;;;5052003;28;20583;-73
2022/06/08 06:03:11;;;;;;;0.50;0.50;;;18.40;99.90;;;;;;5046689;28;20209;-72
2022/06/08 06:05:59;;;;;;;0.40;0.40;;;18.40;99.90;;;;;;5032365;28;20639;-71
2022/06/08 06:08:47;;;;;;;0.55;0.55;;;18.40;99.90;;;;;;5054294;28;20727;-72
2022/06/08 06:11:37;;;;;;;0.52;0.52;;;18.40;99.90;;;;;;5050283;28;20201;-70
2022/06/08 06:14:25;;;;;;;0.40;0.40;;;18.50;99.90;;;;;;5050364;28;20233;-69
2022/06/08 06:17:13;;;;;;;0.40;0.40;;;18.50;99.90;;;;;;5050513;28;20193;-72
2022/06/08 06:20:02;;;;;;;0.77;0.77;;;18.40;99.90;;;;;;5047322;28;20205;-69
2022/06/08 06:22:50;;;;;;;0.60;0.60;;;18.30;99.90;;;;;;5044554;28;20698;-70
2022/06/08 06:25:38;;;;;;;0.50;0.50;;;18.30;99.90;;;;;;5051739;28;20633;-72
2022/06/08 06:28:28;;;;;;;1.30;1.20;;;18.30;99.90;;;;;;5050284;28;20255;-70
2022/06/08 06:31:19;;;;;;;0.70;0.70;;;18.30;99.90;;;;;;5051492;28;20198;-68
2022/06/08 06:34:08;;;;;;;0.50;0.50;;;18.30;99.90;;;;;;5051370;28;20227;-69
2022/06/08 06:36:58;;;;;;;0.40;0.40;;;18.30;99.90;;;;;;5050331;28;20194;-70
2022/06/08 06:39:46;;;;;;;0.40;0.40;;;18.50;99.90;;;;;;5049998;28;20236;-70
2022/06/08 06:42:35;;;;;;;0.40;0.40;;;18.80;99.90;;;;;;5050922;28;20212;-73
2022/06/08 06:45:24;;;;;;;0.75;0.75;;;19.30;99.90;;;;;;5051138;28;20291;-70
2022/06/08 06:48:12;;;;;;;0.45;0.45;;;19.80;99.90;;;;;;5038795;28;20566;-69
2022/06/08 06:51:00;;;;;;;0.40;0.40;;;20.20;99.90;;;;;;5030650;28;20202;-71
2022/06/08 06:53:49;;;;;;;0.40;0.40;;;20.20;99.90;;;;;;5030605;28;20209;-71
2022/06/08 06:56:37;;;;;;;0.40;0.40;;;20.10;99.90;;;;;;5037320;28;20201;-69
2022/06/08 06:59:25;;;;;;;0.50;0.50;;;20.00;99.90;;;;;;5051053;28;20621;-70
2022/06/08 07:02:16;;;;;;;0.40;0.40;;;20.00;99.90;;;;;;5050149;28;20198;-70
2022/06/08 07:05:04;;;;;;;0.43;0.43;;;20.00;99.90;;;;;;5030235;28;20718;-70
2022/06/08 07:07:53;;;;;;;0.63;0.63;;;20.20;99.90;;;;;;5035944;28;20206;-69
2022/06/08 07:10:43;;;;;;;0.40;0.40;;;20.30;99.90;;;;;;5029689;28;20445;-70
2022/06/08 07:13:31;;;;;;;0.40;0.40;;;20.50;99.90;;;;;;5043280;28;20209;-70
2022/06/08 07:16:19;;;;;;;0.40;0.40;;;20.60;99.90;;;;;;5052357;28;20204;-73
2022/06/08 07:19:09;;;;;;;0.40;0.40;;;20.90;99.90;;;;;;5054306;28;20806;-71
2022/06/08 07:21:57;;;;;;;0.40;0.40;;;21.20;99.90;;;;;;5054860;28;20697;-71
2022/06/08 07:24:45;;;;;;;0.40;0.40;;;21.60;99.90;;;;;;5054797;28;20224;-70
2022/06/08 07:27:33;;;;;;;0.40;0.40;;;22.00;99.90;;;;;;5052648;28;20228;-70
2022/06/08 07:30:21;;;;;;;0.40;0.40;;;22.30;99.90;;;;;;5054054;28;20748;-68
2022/06/08 07:33:09;;;;;;;0.40;0.40;;;22.50;99.90;;;;;;5057082;28;20201;-69
2022/06/08 07:35:59;;;;;;;0.50;0.50;;;22.60;99.90;;;;;;5059406;28;20231;-70
2022/06/08 07:38:48;;;;;;;0.40;0.40;;;22.70;99.90;;;;;;5053900;28;20197;-68
2022/06/08 07:41:37;;;;;;;0.40;0.40;;;22.80;99.90;;;;;;5053515;28;20288;-68
2022/06/08 07:44:26;;;;;;;0.40;0.40;;;23.10;99.90;;;;;;5054742;28;20696;-68
2022/06/08 07:47:15;;;;;;;0.40;0.40;;;23.30;99.90;;;;;;5053706;28;20225;-68
2022/06/08 07:50:03;;;;;;;1.25;0.95;;;23.50;99.90;;;;;;5053625;28;20281;-69
2022/06/08 07:52:52;;;;;;;0.40;0.40;;;23.50;99.90;;;;;;5053470;28;20225;-69
2022/06/08 07:55:40;;;;;;;0.68;0.68;;;23.20;99.90;;;;;;5054554;28;20260;-69
2022/06/08 07:58:29;;;;;;;0.50;0.50;;;22.70;99.90;;;;;;5053698;28;20236;-71
2022/06/08 08:01:17;;;;;;;0.75;0.50;;;22.30;99.90;;;;;;5053591;28;20700;-71
2022/06/08 08:04:05;;;;;;;0.40;0.40;;;22.00;99.90;;;;;;5052405;28;20221;-70
2022/06/08 08:06:53;;;;;;;0.40;0.40;;;21.70;99.90;;;;;;5052833;28;20222;-71
2022/06/08 08:09:44;;;;;;;0.40;0.40;;;21.60;99.90;;;;;;5048542;28;20239;-70
2022/06/08 08:12:32;;;;;;;0.40;0.40;;;21.50;99.90;;;;;;5049652;28;20305;-71
2022/06/08 08:15:20;;;;;;;0.40;0.40;;;21.50;99.90;;;;;;5043602;28;20225;-69
2022/06/08 08:18:08;;;;;;;0.68;0.65;;;21.50;99.90;;;;;;5050331;28;20205;-70
2022/06/08 08:20:56;;;;;;;0.80;0.75;;;21.60;99.90;;;;;;5053155;28;20201;-70
2022/06/08 08:23:44;;;;;;;0.40;0.40;;;21.70;99.90;;;;;;5054183;28;20357;-70
2022/06/08 08:26:34;;;;;;;0.40;0.40;;;21.80;99.90;;;;;;5052673;28;20569;-69
2022/06/08 08:29:22;;;;;;;0.40;0.40;;;21.80;99.90;;;;;;5052753;28;20201;-70
2022/06/08 08:32:10;;;;;;;0.77;0.77;;;22.10;99.90;;;;;;5053040;28;20215;-70
2022/06/08 08:34:59;;;;;;;0.40;0.40;;;22.20;99.90;;;;;;5052910;28;20217;-71
2022/06/08 08:37:47;;;;;;;0.63;0.63;;;22.60;99.90;;;;;;5054146;28;20670;-69
2022/06/08 08:40:48;;;;;;;0.40;0.40;;;22.90;99.90;;;;;;5051974;28;20621;-70
2022/06/08 08:43:38;;;;;;;0.40;0.40;;;23.10;99.90;;;;;;5053954;28;20197;-69
2022/06/08 08:46:36;;;;;;;0.40;0.40;;;23.60;99.90;;;;;;5056297;28;20227;-67
2022/06/08 08:49:28;;;;;;;0.40;0.40;;;24.10;99.90;;;;;;5056335;28;20205;-69
2022/06/08 08:52:26;;;;;;;0.95;0.95;;;24.50;99.90;;;;;;5054721;28;20197;-68
2022/06/08 08:55:32;;;;;;;0.40;0.40;;;24.70;99.90;;;;;;5056570;28;20225;-68
2022/06/08 08:58:25;;;;;;;0.40;0.40;;;24.50;99.90;;;;;;5073650;28;20254;-68
2022/06/08 09:01:19;;;;;;;0.73;0.73;;;24.40;99.90;;;;;;5075084;28;20197;-68
2022/06/08 09:04:22;;;;;;;0.40;0.40;;;24.40;99.90;;;;;;5074216;28;20619;-69
2022/06/08 09:07:15;;;;;;;0.40;0.40;;;24.50;99.90;;;;;;5072820;28;20220;-68
2022/06/08 09:10:04;;;;;;;0.40;0.40;;;24.40;99.90;;;;;;5076594;28;20201;-68
2022/06/08 09:12:53;;;;;;;0.50;0.50;;;24.40;99.90;;;;;;5071246;28;20275;-69
2022/06/08 09:15:46;;;;;;;0.40;0.40;;;24.40;99.90;;;;;;5054006;28;20237;-69
2022/06/08 09:18:39;;;;;;;0.40;0.40;;;24.40;99.90;;;;;;5054689;28;20204;-69
2022/06/08 09:21:31;;;;;;;0.50;0.50;;;24.60;99.90;;;;;;5051790;28;20553;-69
2022/06/08 09:24:28;;;;;;;0.40;0.40;;;25.10;99.90;;;;;;5053437;28;20359;-68
2022/06/08 09:27:25;;;;;;;0.45;0.45;;;25.70;99.90;;;;;;5052863;28;20225;-69
2022/06/08 09:30:19;;;;;;;0.40;0.40;;;26.50;99.90;;;;;;5051592;28;20247;-69
2022/06/08 09:33:17;;;;;;;0.40;0.40;;;26.80;99.90;;;;;;5059510;28;20212;-68
2022/06/08 09:36:24;;;;;;;0.40;0.40;;;26.90;99.90;;;;;;5052413;28;20266;-68
2022/06/08 09:39:15;;;;;;;0.40;0.40;;;26.80;99.90;;;;;;5051548;28;20205;-68
2022/06/08 09:42:12;;;;;;;0.40;0.40;;;26.80;99.90;;;;;;5049396;28;20289;-68
2022/06/08 09:45:04;;;;;;;0.40;0.40;;;26.70;99.90;;;;;;5044522;28;20221;-68
2022/06/08 09:51:29;;;;;;;0.40;0.40;;;26.70;98.90;;;;;;5043721;28;20203;-68
2022/06/08 09:54:24;;;;;;;0.40;0.40;;;26.50;99.30;;;;;;5037997;28;20710;-69
2022/06/08 09:57:32;;;;;;;0.40;0.40;;;26.40;99.50;;;;;;5047711;28;20780;-68
2022/06/08 10:00:29;;;;;;;0.40;0.40;;;26.20;99.00;;;;;;5047890;28;20669;-68
2022/06/08 10:03:30;;;;;;;0.40;0.40;;;26.10;99.10;;;;;;5041540;28;20205;-68
2022/06/08 10:06:28;;;;;;;0.40;0.40;;;26.30;99.40;;;;;;5036812;28;20206;-68
2022/06/08 10:09:26;;;;;;;0.70;0.52;;;26.30;99.00;;;;;;5031971;28;20698;-69
2022/06/08 10:12:22;;;;;;;0.40;0.40;;;26.10;99.00;;;;;;5032249;28;20682;-69
2022/06/08 10:15:24;;;;;;;0.40;0.40;;;25.60;99.30;;;;;;5043036;28;20243;-68
2022/06/08 10:18:20;;;;;;;0.40;0.40;;;25.30;99.80;;;;;;5045261;28;20591;-69
2022/06/08 10:21:16;;;;;;;0.40;0.40;;;25.10;99.90;;;;;;5043626;28;20201;-69
2022/06/08 10:24:18;;;;;;;0.40;0.40;;;24.80;99.90;;;;;;5035046;28;20613;-69
2022/06/08 10:27:13;;;;;;;0.40;0.40;;;24.40;99.90;;;;;;5032507;28;20217;-69
2022/06/08 10:30:15;;;;;;;0.43;0.43;;;24.10;99.90;;;;;;5048424;28;20198;-69
2022/06/08 10:33:07;;;;;;;0.40;0.40;;;24.10;99.90;;;;;;5047237;28;20208;-68
2022/06/08 10:35:56;;;;;;;0.40;0.40;;;24.30;99.90;;;;;;5044221;28;20213;-67
2022/06/08 10:38:45;;;;;;;0.40;0.40;;;24.60;99.90;;;;;;5043457;28;20548;-69
2022/06/08 10:44:50;;;;;;;0.40;0.40;;;25.20;99.90;;;;;;5051569;28;20693;-68
2022/06/08 10:47:39;;;;;;;0.40;0.40;;;25.40;99.90;;;;;;5049370;28;20227;-68
2022/06/08 10:50:31;;;;;;;0.40;0.40;;;25.60;99.90;;;;;;5053330;28;20677;-68
2022/06/08 10:57:32;;;;;;;0.40;0.40;;;25.80;98.80;;;;;;5062695;28;20291;-69
2022/06/08 11:00:41;;;;;;;0.40;0.40;;;25.60;98.80;;;;;;5061826;28;20193;-68
2022/06/08 11:03:46;;;;;;;0.40;0.40;;;25.40;99.30;;;;;;5045978;28;20284;-69
2022/06/08 11:07:00;;;;;;;0.40;0.40;;;25.40;99.30;;;;;;5054465;28;20204;-69
2022/06/08 11:09:54;;;;;;;0.40;0.40;;;25.60;99.20;;;;;;5050873;28;20208;-68
2022/06/08 11:12:54;;;;;;;0.40;0.40;;;25.90;98.30;;;;;;5036425;28;20210;-68
2022/06/08 11:15:48;;;;;;;0.40;0.40;;;26.30;97.40;;;;;;5034922;28;20629;-69
2022/06/08 11:18:42;;;;;;;0.40;0.40;;;26.40;97.60;;;;;;5051964;28;20201;-69
2022/06/08 11:21:42;;;;;;;0.40;0.40;;;26.60;97.10;;;;;;5054085;28;20201;-69
2022/06/08 11:24:35;;;;;;;0.40;0.40;;;27.00;97.20;;;;;;5054697;28;20600;-67
2022/06/08 11:27:30;;;;;;;0.40;0.40;;;27.10;96.30;;;;;;5054101;28;20205;-68
2022/06/08 11:30:50;;;;;;;0.40;0.40;;;27.30;96.10;;;;;;5062606;28;20209;-70
2022/06/08 11:34:03;;;;;;;0.40;0.40;;;27.30;95.80;;;;;;5046116;28;20205;-69
2022/06/08 11:37:03;;;;;;;0.40;0.40;;;26.90;94.90;;;;;;5050937;28;20205;-70
2022/06/08 11:39:57;;;;;;;0.50;0.50;;;26.60;95.20;;;;;;5048203;28;20221;-69
2022/06/08 11:42:51;;;;;;;0.40;0.40;;;26.60;95.50;;;;;;5046851;28;20213;-70
2022/06/08 11:45:42;;;;;;;0.40;0.40;;;26.90;95.10;;;;;;5043047;28;20221;-70
2022/06/08 11:48:47;;;;;;;0.50;0.50;;;27.20;94.50;;;;;;5043346;28;20280;-70
2022/06/08 11:51:39;;;;;;;0.40;0.40;;;27.00;94.00;;;;;;5049801;28;20584;-69
2022/06/08 11:54:32;;;;;;;0.50;0.50;;;26.70;94.00;;;;;;5045960;28;20243;-69
2022/06/08 11:57:21;;;;;;;0.40;0.40;;;26.70;94.50;;;;;;5051991;28;20203;-69
2022/06/08 12:00:26;;;;;;;0.40;0.40;;;26.90;94.60;;;;;;5051720;28;20581;-69
2022/06/08 12:03:25;;;;;;;0.40;0.40;;;27.50;94.00;;;;;;5033127;28;20291;-66
2022/06/08 12:06:22;;;;;;;0.40;0.40;;;28.20;92.90;;;;;;5033512;28;20202;-66
2022/06/08 12:09:15;;;;;;;0.40;0.40;;;28.90;91.20;;;;;;5033032;28;20228;-67
2022/06/08 12:12:11;;;;;;;0.40;0.40;;;29.20;90.80;;;;;;5033120;28;20213;-68
2022/06/08 12:15:33;;;;;;;0.40;0.40;;;29.50;87.90;;;;;;5032342;28;20226;-68
2022/06/08 12:18:46;;;;;;;0.40;0.40;;;29.50;85.90;;;;;;5031682;28;20673;-68
2022/06/08 12:21:39;;;;;;;0.40;0.40;;;29.60;84.60;;;;;;5033060;28;20225;-68
2022/06/08 12:24:28;;;;;;;0.40;0.40;;;29.80;84.80;;;;;;5032808;28;20230;-67
2022/06/08 12:27:22;;;;;;;0.40;0.40;;;30.00;83.60;;;;;;5046639;28;20205;-68
2022/06/08 12:30:22;;;;;;;0.40;0.40;;;30.20;82.20;;;;;;5046810;28;20208;-68
2022/06/08 12:33:24;;;;;;;0.40;0.40;;;30.40;81.30;;;;;;5043577;28;20201;-68
2022/06/08 12:36:22;;;;;;;0.40;0.40;;;30.60;78.80;;;;;;5043011;28;20198;-68
2022/06/08 12:39:15;;;;;;;0.40;0.40;;;30.70;79.00;;;;;;5041426;28;20257;-67
2022/06/08 12:42:23;;;;;;;0.40;0.40;;;30.80;78.10;;;;;;5036294;28;20202;-68
2022/06/08 12:45:26;;;;;;;0.40;0.40;;;30.90;78.00;;;;;;5049440;28;20236;-67
2022/06/08 12:48:23;;;;;;;0.40;0.40;;;31.20;77.50;;;;;;5045873;28;20217;-67
2022/06/08 12:51:25;;;;;;;0.40;0.40;;;31.10;74.40;;;;;;5043093;28;20667;-68
2022/06/08 12:54:20;;;;;;;0.40;0.40;;;30.90;75.50;;;;;;5042511;28;20214;-68
2022/06/08 12:57:14;;;;;;;0.45;0.45;;;30.70;75.70;;;;;;5037990;28;20197;-68
2022/06/08 13:00:07;;;;;;;0.40;0.40;;;30.30;75.80;;;;;;5049340;28;20267;-68
2022/06/08 13:02:57;;;;;;;0.43;0.43;;;30.70;75.70;;;;;;5043063;28;20208;-68
2022/06/08 13:05:45;;;;;;;0.40;0.40;;;31.20;72.30;;;;;;5045790;28;20233;-68
2022/06/08 13:08:34;;;;;;;0.60;0.60;;;30.70;72.80;;;;;;5045526;28;20221;-68
2022/06/08 13:11:26;;;;;;;0.77;0.77;;;29.90;73.60;;;;;;5042652;28;20201;-68
2022/06/08 13:14:16;;;;;;;0.40;0.40;;;29.30;75.20;;;;;;5042331;28;20228;-68
2022/06/08 13:17:05;;;;;;;0.40;0.40;;;29.30;75.10;;;;;;5045170;28;20189;-68
2022/06/08 13:19:56;;;;;;;0.40;0.40;;;29.10;75.50;;;;;;5038507;28;20209;-68
2022/06/08 13:22:45;;;;;;;0.40;0.40;;;29.10;76.20;;;;;;5036382;28;20197;-68
2022/06/08 13:25:42;;;;;;;0.40;0.40;;;30.20;76.60;;;;;;5054542;28;20782;-68
2022/06/08 13:28:33;;;;;;;0.40;0.40;;;31.10;73.70;;;;;;5053641;28;20913;-68
2022/06/08 13:31:23;;;;;;;0.45;0.45;;;31.20;72.40;;;;;;5032483;28;20555;-68
2022/06/08 13:34:13;;;;;;;0.40;0.40;;;30.80;72.40;;;;;;5031662;28;20214;-68
2022/06/08 13:37:01;;;;;;;0.40;0.40;;;30.80;72.20;;;;;;5048414;28;20232;-68
2022/06/08 13:39:50;;;;;;;0.40;0.40;;;30.30;72.40;;;;;;5051942;28;20289;-67
2022/06/08 13:42:39;;;;;;;0.40;0.40;;;30.30;73.50;;;;;;5052096;28;20237;-67
2022/06/08 13:45:33;;;;;;;0.40;0.40;;;30.80;71.40;;;;;;5051753;28;20272;-67
2022/06/08 13:48:22;;;;;;;0.40;0.40;;;30.70;70.90;;;;;;5051399;28;20201;-68
2022/06/08 13:51:10;;;;;;;0.40;0.40;;;30.90;71.50;;;;;;5049982;28;20205;-68
2022/06/08 13:53:58;;;;;;;0.40;0.40;;;31.70;69.80;;;;;;5048986;28;20282;-68
2022/06/08 13:56:46;;;;;;;0.40;0.40;;;32.00;69.00;;;;;;5046377;28;20198;-68
2022/06/08 13:59:36;;;;;;;0.40;0.40;;;31.70;68.20;;;;;;5042977;28;20198;-68
2022/06/08 14:02:33;;;;;;;0.40;0.40;;;31.80;68.00;;;;;;5042008;28;20675;-68
2022/06/08 14:12:59;;;;;;;0.40;0.40;;;32.40;67.60;;;;;;5039195;28;20222;-68
2022/06/08 14:15:13;;;;;;;0.40;0.40;;;31.80;67.00;;;;;;5041139;28;20225;-68
2022/06/08 14:18:03;;;;;;;0.40;0.40;;;32.20;67.30;;;;;;5048895;28;20209;-68
2022/06/08 14:20:52;;;;;;;0.40;0.40;;;34.30;63.10;;;;;;5045096;28;20201;-68
2022/06/08 14:23:46;;;;;;;0.40;0.40;;;34.80;62.20;;;;;;5049706;28;20216;-68
2022/06/08 14:26:34;;;;;;;0.40;0.40;;;35.60;60.40;;;;;;5051781;28;20209;-68
2022/06/08 14:29:23;;;;;;;0.43;0.43;;;35.50;59.40;;;;;;5050160;28;20232;-68
2022/06/08 14:32:17;;;;;;;0.40;0.40;;;34.70;60.10;;;;;;5050410;28;20237;-68
2022/06/08 14:35:12;;;;;;;0.40;0.40;;;34.50;61.60;;;;;;5042593;28;20221;-68
2022/06/08 14:38:25;;;;;;;0.40;0.40;;;34.30;59.40;;;;;;5042893;28;20383;-68
2022/06/08 14:41:13;;;;;;;0.40;0.40;;;34.40;58.80;;;;;;5047823;28;20670;-68
2022/06/08 14:44:01;;;;;;;0.40;0.40;;;34.50;58.00;;;;;;5046032;28;20221;-68
2022/06/08 14:46:53;;;;;;;0.40;0.40;;;34.10;58.30;;;;;;5041017;28;20204;-68
2022/06/08 14:49:41;;;;;;;0.40;0.40;;;33.50;58.80;;;;;;5046461;28;20270;-68
2022/06/08 14:52:37;;;;;;;0.40;0.40;;;32.70;59.60;;;;;;5044947;28;20754;-68
2022/06/08 14:58:28;;;;;;;0.50;0.50;;;33.20;59.20;;;;;;5017714;28;20200;-68
2022/06/08 15:01:19;;;;;;;0.40;0.40;;;33.90;57.50;;;;;;5045391;28;20205;-68
2022/06/08 15:04:11;;;;;;;0.50;0.50;;;34.10;57.70;;;;;;5044394;28;20325;-68
2022/06/08 15:06:59;;;;;;;0.40;0.40;;;34.00;58.10;;;;;;5046888;28;20255;-68
2022/06/08 15:09:50;;;;;;;0.40;0.40;;;34.20;58.40;;;;;;5047656;28;20260;-69
2022/06/08 15:12:40;;;;;;;0.50;0.50;;;36.40;55.30;;;;;;5045977;28;20688;-69
2022/06/08 15:15:29;;;;;;;0.50;0.50;;;39.10;52.60;;;;;;5029138;28;20237;-69
2022/06/08 15:18:17;;;;;;;0.40;0.40;;;40.00;50.10;;;;;;5029340;28;20683;-69
2022/06/08 15:21:05;;;;;;;0.50;0.50;;;39.70;48.30;;;;;;5031017;28;20205;-69
2022/06/08 15:23:53;;;;;;;0.40;0.40;;;38.80;49.30;;;;;;5033476;28;20226;-69